Time;durP1;ratioP1;P1;durP2;ratioP2;P2;SDS_P1;SDS_P2;PMS_P1;PMS_P2;Temp;Humidity;BMP_temperature;BMP_pressure;BME280_temperature;BME280_humidity;BME280_pressure;Samples;Min_cycle;Max_cycle;Signal;HPM_P1;HPM_P2
2022/03/10 00:01:43;;;;;;;12.20;7.33;;;4.70;96.00;;;;;;5063324;28;20464;-67
2022/03/10 00:04:10;;;;;;;20.07;7.97;;;4.70;96.40;;;;;;5065393;28;20494;-65
2022/03/10 00:06:37;;;;;;;13.03;8.03;;;4.80;96.60;;;;;;5061016;28;20461;-66
2022/03/10 00:09:04;;;;;;;9.50;5.53;;;4.80;97.10;;;;;;5068372;28;20578;-67
2022/03/10 00:11:31;;;;;;;13.40;6.30;;;4.80;97.10;;;;;;5068961;28;20470;-65
2022/03/10 00:13:57;;;;;;;12.97;6.90;;;4.70;97.10;;;;;;5064376;27;20435;-66
2022/03/10 00:16:25;;;;;;;9.93;5.23;;;4.70;96.20;;;;;;5069670;28;20549;-67
2022/03/10 00:18:52;;;;;;;9.40;6.97;;;4.40;96.40;;;;;;5066895;28;20480;-67
2022/03/10 00:21:19;;;;;;;9.77;6.50;;;4.30;97.00;;;;;;5061925;27;20467;-67
2022/03/10 00:23:46;;;;;;;16.10;7.87;;;4.20;97.50;;;;;;5061472;28;21405;-67
2022/03/10 00:26:12;;;;;;;10.03;5.47;;;4.20;97.80;;;;;;5066394;28;20809;-66
2022/03/10 00:28:39;;;;;;;11.03;5.60;;;4.20;97.90;;;;;;5069833;28;20872;-66
2022/03/10 00:31:08;;;;;;;9.80;5.50;;;4.30;98.00;;;;;;5070247;28;20431;-66
2022/03/10 00:33:36;;;;;;;12.10;7.63;;;4.30;98.20;;;;;;5066347;28;20463;-66
2022/03/10 00:36:03;;;;;;;10.80;6.90;;;4.40;97.80;;;;;;5069168;28;20890;-66
2022/03/10 00:38:29;;;;;;;10.40;6.93;;;4.40;97.30;;;;;;5071254;28;20456;-67
2022/03/10 00:40:56;;;;;;;10.53;5.43;;;4.40;96.90;;;;;;5064374;28;22518;-66
2022/03/10 00:43:23;;;;;;;6.90;4.37;;;4.30;97.00;;;;;;5082729;28;20500;-67
2022/03/10 00:45:49;;;;;;;10.47;7.47;;;4.20;97.00;;;;;;5076535;28;21109;-66
2022/03/10 00:48:16;;;;;;;13.60;5.93;;;4.20;97.30;;;;;;5080751;28;21629;-68
2022/03/10 00:50:44;;;;;;;14.40;6.37;;;4.20;97.40;;;;;;5064094;28;20546;-67
2022/03/10 00:53:12;;;;;;;11.53;6.20;;;4.10;97.50;;;;;;5071563;28;21257;-67
2022/03/10 00:55:39;;;;;;;13.30;7.40;;;4.10;97.40;;;;;;5068945;28;20480;-68
2022/03/10 00:58:05;;;;;;;9.13;5.33;;;4.20;97.40;;;;;;5062899;28;21657;-66
2022/03/10 01:00:32;;;;;;;7.80;5.17;;;4.20;97.10;;;;;;5064670;28;20606;-65
2022/03/10 01:02:59;;;;;;;8.33;5.23;;;4.00;97.80;;;;;;5068049;28;20811;-65
2022/03/10 01:05:26;;;;;;;19.80;5.87;;;4.10;97.90;;;;;;5065868;28;20545;-68
2022/03/10 01:07:54;;;;;;;16.53;6.43;;;4.10;97.60;;;;;;5072862;28;20618;-67
2022/03/10 01:10:21;;;;;;;11.03;4.13;;;4.10;97.70;;;;;;5079664;28;20946;-67
2022/03/10 01:12:48;;;;;;;8.53;5.57;;;3.90;98.50;;;;;;5072636;28;20593;-66
2022/03/10 01:15:18;;;;;;;8.57;4.57;;;3.90;98.60;;;;;;5069325;28;20436;-65
2022/03/10 01:17:46;;;;;;;9.20;5.87;;;3.90;98.50;;;;;;5067132;28;20528;-65
2022/03/10 01:20:13;;;;;;;20.97;6.20;;;3.90;98.70;;;;;;5066706;28;21054;-66
2022/03/10 01:22:41;;;;;;;10.90;5.50;;;3.80;98.80;;;;;;5070559;28;20500;-66
2022/03/10 01:25:10;;;;;;;12.27;5.73;;;3.90;98.60;;;;;;5073956;28;20971;-67
2022/03/10 01:27:37;;;;;;;10.97;6.40;;;3.70;99.20;;;;;;5065510;28;20580;-67
2022/03/10 01:30:05;;;;;;;7.80;4.53;;;3.70;99.60;;;;;;5069158;28;21111;-68
2022/03/10 01:32:31;;;;;;;5.03;4.53;;;3.70;99.90;;;;;;5060363;28;20450;-67
2022/03/10 01:34:58;;;;;;;12.73;5.63;;;3.80;99.90;;;;;;5067593;28;20462;-67
2022/03/10 01:37:25;;;;;;;14.43;6.43;;;3.80;99.90;;;;;;5068181;28;20489;-67
2022/03/10 01:39:52;;;;;;;6.63;4.63;;;4.00;99.90;;;;;;5066515;28;20912;-66
2022/03/10 01:42:20;;;;;;;8.97;5.17;;;3.90;99.90;;;;;;5076610;28;20476;-65
2022/03/10 01:44:53;;;;;;;7.00;5.43;;;4.00;99.90;;;;;;5074170;28;20473;-68
2022/03/10 01:47:19;;;;;;;14.33;5.27;;;4.10;99.90;;;;;;5078389;28;20496;-67
2022/03/10 01:49:46;;;;;;;9.23;5.80;;;3.90;99.90;;;;;;5068793;28;20432;-67
2022/03/10 01:52:13;;;;;;;7.80;5.30;;;3.90;99.90;;;;;;5059003;28;20464;-69
2022/03/10 01:54:41;;;;;;;11.30;5.90;;;3.90;99.90;;;;;;5060922;28;21550;-68
2022/03/10 01:57:07;;;;;;;9.20;4.77;;;3.80;99.90;;;;;;5062571;28;20554;-69
2022/03/10 01:59:36;;;;;;;12.70;6.67;;;3.80;99.90;;;;;;5066074;28;21099;-69
2022/03/10 02:02:03;;;;;;;9.73;5.40;;;3.70;99.90;;;;;;5070569;28;20453;-68
2022/03/10 02:04:30;;;;;;;14.03;5.80;;;3.60;99.90;;;;;;5067985;28;20539;-70
2022/03/10 02:06:56;;;;;;;11.23;5.10;;;3.50;99.90;;;;;;5069610;28;20541;-69
2022/03/10 02:12:09;;;;;;;11.93;6.37;;;3.60;99.90;;;;;;5069173;28;20675;-70
2022/03/10 02:17:21;;;;;;;10.60;7.00;;;3.70;99.90;;;;;;5068771;28;20447;-69
2022/03/10 02:19:50;;;;;;;17.27;6.90;;;3.80;99.90;;;;;;5075792;28;20436;-69
2022/03/10 02:22:20;;;;;;;19.07;8.67;;;3.80;99.90;;;;;;5081198;28;20465;-68
2022/03/10 02:24:48;;;;;;;15.47;9.10;;;3.80;99.90;;;;;;5082973;27;20557;-69
2022/03/10 02:27:17;;;;;;;18.43;8.23;;;3.80;99.90;;;;;;5077770;27;20456;-69
2022/03/10 02:29:44;;;;;;;16.60;7.80;;;3.70;99.90;;;;;;5061812;28;22579;-69
2022/03/10 02:32:11;;;;;;;11.20;6.43;;;3.60;99.90;;;;;;5072994;27;20428;-69
2022/03/10 02:34:38;;;;;;;16.67;6.60;;;3.50;99.90;;;;;;5069121;28;20919;-69
2022/03/10 02:37:05;;;;;;;10.87;5.73;;;3.50;99.90;;;;;;5064183;28;20438;-70
2022/03/10 02:39:33;;;;;;;14.77;6.83;;;3.50;99.90;;;;;;5078102;28;20617;-70
2022/03/10 02:42:00;;;;;;;16.97;7.73;;;3.50;99.90;;;;;;5079030;27;22069;-69
2022/03/10 02:44:27;;;;;;;12.23;6.00;;;3.50;99.90;;;;;;5079215;28;20554;-70
2022/03/10 02:46:54;;;;;;;13.07;5.90;;;3.40;99.90;;;;;;5080808;28;20436;-69
2022/03/10 02:49:21;;;;;;;14.63;6.37;;;3.30;99.90;;;;;;5074215;28;20465;-69
2022/03/10 02:51:47;;;;;;;12.07;6.30;;;3.20;99.90;;;;;;5081961;27;20439;-69
2022/03/10 02:54:14;;;;;;;11.47;6.80;;;3.40;99.90;;;;;;5077411;28;21055;-69
2022/03/10 02:56:43;;;;;;;11.80;5.77;;;3.50;99.90;;;;;;5075454;28;21101;-68
2022/03/10 02:59:10;;;;;;;7.70;4.17;;;3.40;99.90;;;;;;5058101;28;21983;-69
2022/03/10 03:01:37;;;;;;;16.53;7.33;;;3.30;99.90;;;;;;5068514;28;20435;-68
2022/03/10 03:04:05;;;;;;;11.47;5.90;;;3.20;99.90;;;;;;5065132;28;20993;-72
2022/03/10 03:06:31;;;;;;;8.67;5.80;;;3.00;99.90;;;;;;5066796;28;21030;-70
2022/03/10 03:08:58;;;;;;;8.23;6.10;;;3.00;99.90;;;;;;5068092;28;20515;-69
2022/03/10 03:11:25;;;;;;;8.13;4.70;;;3.00;99.90;;;;;;5063607;28;20633;-69
2022/03/10 03:13:53;;;;;;;10.80;6.57;;;3.10;99.90;;;;;;5068822;28;20568;-69
2022/03/10 03:16:19;;;;;;;17.23;6.90;;;3.10;99.90;;;;;;5077222;28;20469;-70
2022/03/10 03:18:46;;;;;;;8.50;5.53;;;3.00;99.90;;;;;;5078912;28;20612;-69
2022/03/10 03:21:13;;;;;;;10.50;6.43;;;3.00;99.90;;;;;;5077065;28;20490;-71
2022/03/10 03:23:39;;;;;;;8.50;4.70;;;3.10;99.90;;;;;;5065731;28;20661;-70
2022/03/10 03:26:06;;;;;;;17.20;5.33;;;3.00;99.90;;;;;;5068949;28;20460;-69
2022/03/10 03:28:33;;;;;;;18.17;6.23;;;2.80;99.90;;;;;;5066847;28;20487;-69
2022/03/10 03:31:01;;;;;;;9.63;6.70;;;2.90;99.90;;;;;;5067559;28;20465;-69
2022/03/10 03:33:28;;;;;;;20.50;8.67;;;3.00;99.90;;;;;;5068104;28;20481;-68
2022/03/10 03:35:55;;;;;;;6.90;4.70;;;3.10;99.90;;;;;;5064060;28;20469;-69
2022/03/10 03:38:21;;;;;;;7.07;4.47;;;3.00;99.90;;;;;;5062588;28;20513;-71
2022/03/10 03:40:48;;;;;;;5.07;4.53;;;3.00;99.90;;;;;;5063522;28;20903;-68
2022/03/10 03:43:15;;;;;;;13.07;6.10;;;2.90;99.90;;;;;;5063231;28;20469;-68
2022/03/10 03:45:41;;;;;;;4.20;3.80;;;3.00;99.90;;;;;;5059316;28;20535;-69
2022/03/10 03:48:09;;;;;;;10.03;5.83;;;3.00;99.90;;;;;;5061334;28;20489;-68
2022/03/10 03:50:36;;;;;;;8.30;7.43;;;2.80;99.90;;;;;;5057330;28;20473;-68
2022/03/10 03:53:03;;;;;;;16.80;5.17;;;2.80;99.90;;;;;;5064205;28;20538;-68
2022/03/10 03:55:31;;;;;;;11.90;5.57;;;2.70;99.90;;;;;;5063657;28;21221;-68
2022/03/10 03:57:57;;;;;;;14.90;7.90;;;2.70;99.90;;;;;;5063188;28;20477;-68
2022/03/10 04:00:24;;;;;;;8.37;5.40;;;2.90;99.90;;;;;;5060870;28;21021;-68
2022/03/10 04:02:50;;;;;;;6.63;4.20;;;2.90;99.90;;;;;;5070663;27;20490;-69
2022/03/10 04:05:18;;;;;;;9.83;6.30;;;2.70;99.90;;;;;;5061825;28;20735;-68
2022/03/10 04:07:46;;;;;;;15.37;6.00;;;2.70;99.90;;;;;;5055300;28;28037;-69
2022/03/10 04:10:12;;;;;;;11.60;6.63;;;2.80;99.90;;;;;;5051029;28;20491;-68
2022/03/10 04:12:40;;;;;;;24.47;5.37;;;2.70;99.90;;;;;;5051957;28;20468;-68
2022/03/10 04:15:07;;;;;;;7.07;4.17;;;2.60;99.90;;;;;;5055322;28;20465;-70
2022/03/10 04:17:34;;;;;;;14.07;8.40;;;2.60;99.90;;;;;;5053855;28;20512;-70
2022/03/10 04:20:08;;;;;;;13.60;7.87;;;2.60;99.90;;;;;;5052541;28;20930;-69
2022/03/10 04:22:36;;;;;;;14.03;6.00;;;2.60;99.90;;;;;;5057011;28;20475;-71
2022/03/10 04:25:03;;;;;;;5.07;4.57;;;2.60;99.90;;;;;;5063643;28;20465;-69
2022/03/10 04:27:30;;;;;;;11.97;6.30;;;2.60;99.90;;;;;;5057912;28;20795;-71
2022/03/10 04:30:00;;;;;;;9.83;5.17;;;2.60;99.90;;;;;;5051972;28;20512;-70
2022/03/10 04:32:26;;;;;;;32.13;7.83;;;2.60;99.90;;;;;;5058272;28;21041;-68
2022/03/10 04:34:53;;;;;;;11.43;5.00;;;2.60;99.90;;;;;;5047691;28;20647;-68
2022/03/10 04:37:20;;;;;;;11.90;5.60;;;2.50;99.90;;;;;;5063071;28;20507;-69
2022/03/10 04:39:48;;;;;;;15.10;5.50;;;2.50;99.90;;;;;;5060851;28;20443;-70
2022/03/10 04:42:14;;;;;;;10.03;4.83;;;2.50;99.90;;;;;;5061332;28;20631;-69
2022/03/10 04:44:41;;;;;;;11.13;6.60;;;2.40;99.90;;;;;;5062284;28;20771;-68
2022/03/10 04:47:08;;;;;;;9.27;6.17;;;2.40;99.90;;;;;;5061872;28;20436;-70
2022/03/10 04:49:35;;;;;;;8.33;5.20;;;2.50;99.90;;;;;;5058294;28;20461;-70
2022/03/10 04:52:02;;;;;;;20.07;5.80;;;2.40;99.90;;;;;;5060556;28;20444;-69
2022/03/10 04:54:28;;;;;;;7.00;5.10;;;2.20;99.90;;;;;;5057266;28;20476;-69
2022/03/10 04:56:57;;;;;;;9.50;5.10;;;2.10;99.90;;;;;;5050777;28;20446;-69
2022/03/10 04:59:25;;;;;;;7.80;5.97;;;2.00;99.90;;;;;;5059891;28;20485;-68
2022/03/10 05:01:51;;;;;;;9.60;7.50;;;2.10;99.90;;;;;;5063887;28;20601;-68
2022/03/10 05:04:18;;;;;;;7.70;4.70;;;2.20;99.90;;;;;;5060622;28;20888;-70
2022/03/10 05:06:45;;;;;;;13.50;7.77;;;2.20;99.90;;;;;;5050014;28;21587;-66
2022/03/10 05:09:11;;;;;;;32.37;4.87;;;2.20;99.90;;;;;;5065347;28;20471;-67
2022/03/10 05:11:43;;;;;;;6.17;5.50;;;2.10;99.90;;;;;;5067096;28;20688;-67
2022/03/10 05:14:11;;;;;;;9.80;5.33;;;2.40;99.90;;;;;;5064609;28;20465;-67
2022/03/10 05:16:38;;;;;;;8.53;4.83;;;2.40;99.90;;;;;;5069477;28;20432;-66
2022/03/10 05:19:04;;;;;;;17.43;7.03;;;2.50;99.90;;;;;;5060261;28;20447;-67
2022/03/10 05:21:31;;;;;;;9.73;4.77;;;2.50;99.90;;;;;;5062299;28;20775;-67
2022/03/10 05:23:58;;;;;;;11.73;5.70;;;2.50;99.90;;;;;;5063328;28;20453;-67
2022/03/10 05:26:24;;;;;;;7.93;5.23;;;2.30;99.90;;;;;;5071686;28;21018;-65
2022/03/10 05:28:52;;;;;;;9.90;5.63;;;2.20;99.90;;;;;;5066547;28;20459;-67
2022/03/10 05:31:20;;;;;;;8.73;5.40;;;2.20;99.90;;;;;;5063343;28;20945;-69
2022/03/10 05:33:46;;;;;;;8.83;5.00;;;2.40;99.90;;;;;;5067708;28;21022;-67
2022/03/10 05:36:13;;;;;;;7.53;5.47;;;2.40;99.90;;;;;;5065792;28;20593;-67
2022/03/10 05:38:39;;;;;;;12.23;5.83;;;2.30;99.90;;;;;;5071778;28;20503;-67
2022/03/10 05:41:09;;;;;;;14.43;5.40;;;2.20;99.90;;;;;;5076872;28;20457;-67
2022/03/10 05:43:36;;;;;;;6.80;6.23;;;2.30;99.90;;;;;;5080057;28;20476;-68
2022/03/10 05:46:04;;;;;;;8.60;5.10;;;2.30;99.90;;;;;;5074194;28;20727;-68
2022/03/10 05:48:32;;;;;;;5.70;4.87;;;2.40;99.90;;;;;;5074534;28;20456;-64
2022/03/10 05:50:59;;;;;;;5.17;4.30;;;2.50;99.90;;;;;;5068678;28;20934;-67
2022/03/10 05:53:26;;;;;;;21.27;7.57;;;2.50;99.90;;;;;;5072706;28;20460;-67
2022/03/10 05:55:53;;;;;;;5.63;4.90;;;2.60;99.90;;;;;;5072159;28;21026;-68
2022/03/10 05:58:20;;;;;;;6.50;3.87;;;2.60;99.90;;;;;;5070090;28;20536;-68
2022/03/10 06:00:46;;;;;;;8.60;6.20;;;2.50;99.90;;;;;;5070342;27;21235;-68
2022/03/10 06:03:13;;;;;;;11.73;6.30;;;2.50;99.90;;;;;;5074422;27;20449;-68
2022/03/10 06:05:41;;;;;;;7.50;5.13;;;2.50;99.90;;;;;;5070672;28;20452;-68
2022/03/10 06:08:08;;;;;;;10.40;5.13;;;2.40;99.90;;;;;;5081707;28;20609;-66
2022/03/10 06:10:35;;;;;;;13.20;5.37;;;2.30;99.90;;;;;;5081157;28;20811;-67
2022/03/10 06:13:01;;;;;;;10.40;4.80;;;2.40;99.90;;;;;;5080910;28;20598;-67
2022/03/10 06:15:28;;;;;;;11.07;5.80;;;2.50;99.90;;;;;;5081500;28;20480;-68
2022/03/10 06:17:54;;;;;;;11.40;5.73;;;2.70;99.90;;;;;;5084690;28;20484;-67
2022/03/10 06:20:21;;;;;;;5.87;4.07;;;2.80;99.90;;;;;;5084835;28;20449;-66
2022/03/10 06:22:49;;;;;;;10.20;6.03;;;2.80;99.90;;;;;;5072629;28;20438;-67
2022/03/10 06:25:16;;;;;;;14.27;6.00;;;2.90;99.90;;;;;;5071544;28;21466;-68
2022/03/10 06:27:43;;;;;;;7.30;5.23;;;3.10;99.90;;;;;;5069802;28;20476;-65
2022/03/10 06:30:11;;;;;;;7.33;4.47;;;3.20;99.90;;;;;;5067318;28;20451;-65
2022/03/10 06:32:37;;;;;;;9.00;5.30;;;3.30;99.90;;;;;;5071954;28;20464;-67
2022/03/10 06:35:05;;;;;;;8.90;5.00;;;3.30;99.90;;;;;;5084859;28;20613;-66
2022/03/10 06:37:32;;;;;;;16.60;6.20;;;3.40;99.90;;;;;;5074862;28;20480;-66
2022/03/10 06:40:02;;;;;;;17.70;6.67;;;3.50;99.90;;;;;;5072816;28;20860;-67
2022/03/10 06:42:31;;;;;;;10.13;6.60;;;3.80;99.90;;;;;;5070639;28;20755;-65
2022/03/10 06:44:57;;;;;;;9.70;6.70;;;4.00;99.90;;;;;;5066876;28;20457;-65
2022/03/10 06:47:24;;;;;;;9.10;5.50;;;4.20;99.90;;;;;;5069778;28;22521;-65
2022/03/10 06:49:51;;;;;;;13.00;7.20;;;4.40;99.90;;;;;;5066971;27;20432;-65
2022/03/10 06:52:19;;;;;;;18.33;7.70;;;4.50;99.90;;;;;;5064934;28;23720;-68
2022/03/10 06:54:46;;;;;;;10.60;5.07;;;4.60;99.90;;;;;;5066365;27;20488;-67
2022/03/10 06:57:14;;;;;;;9.70;6.00;;;4.70;99.90;;;;;;5074230;28;20459;-65
2022/03/10 06:59:44;;;;;;;28.30;7.23;;;4.60;99.90;;;;;;5081260;28;20507;-66
2022/03/10 07:02:11;;;;;;;11.03;5.97;;;4.60;99.90;;;;;;5069450;28;20431;-66
2022/03/10 07:04:37;;;;;;;16.70;6.23;;;4.60;99.90;;;;;;5065603;28;20431;-67
2022/03/10 07:07:05;;;;;;;11.93;5.40;;;4.80;99.90;;;;;;5067718;28;20510;-66
2022/03/10 07:09:31;;;;;;;13.23;6.03;;;4.90;99.90;;;;;;5063232;27;20435;-66
2022/03/10 07:11:58;;;;;;;9.67;4.07;;;5.00;99.90;;;;;;5071501;28;20960;-65
2022/03/10 07:14:26;;;;;;;12.03;6.43;;;5.00;99.90;;;;;;5065188;28;20468;-66
2022/03/10 07:16:53;;;;;;;12.30;7.30;;;5.10;99.90;;;;;;5065518;28;20459;-67
2022/03/10 07:19:20;;;;;;;5.40;4.73;;;5.30;99.90;;;;;;5064980;28;20456;-66
2022/03/10 07:21:47;;;;;;;10.10;6.43;;;5.60;99.90;;;;;;5065954;28;20443;-65
2022/03/10 07:24:13;;;;;;;11.67;5.03;;;5.60;99.90;;;;;;5071031;28;20482;-66
2022/03/10 07:26:40;;;;;;;11.23;5.40;;;5.60;99.90;;;;;;5060297;28;20548;-66
2022/03/10 07:29:07;;;;;;;7.03;6.30;;;5.60;99.90;;;;;;5070311;28;20576;-66
2022/03/10 07:31:35;;;;;;;8.60;5.90;;;5.70;99.90;;;;;;5073481;27;20635;-67
2022/03/10 07:34:02;;;;;;;15.10;4.80;;;5.80;99.70;;;;;;5066457;28;20609;-67
2022/03/10 07:36:29;;;;;;;13.50;6.67;;;6.00;98.90;;;;;;5069871;28;22115;-65
2022/03/10 07:38:56;;;;;;;12.40;6.17;;;6.10;98.50;;;;;;5070599;28;21059;-67
2022/03/10 07:41:23;;;;;;;8.00;5.57;;;6.40;98.00;;;;;;5061275;27;20443;-66
2022/03/10 07:43:49;;;;;;;10.73;6.27;;;6.70;97.00;;;;;;5065956;28;20789;-66
2022/03/10 07:46:16;;;;;;;8.70;6.50;;;7.30;96.10;;;;;;5067972;28;20519;-66
2022/03/10 07:48:44;;;;;;;8.33;5.27;;;7.50;94.90;;;;;;5064550;28;20770;-66
2022/03/10 07:51:10;;;;;;;14.07;7.23;;;7.50;94.80;;;;;;5064606;28;20525;-66
2022/03/10 07:53:37;;;;;;;6.87;5.57;;;7.50;94.00;;;;;;5064513;28;20514;-67
2022/03/10 07:56:04;;;;;;;11.90;7.57;;;7.50;92.80;;;;;;5067089;28;20894;-66
2022/03/10 07:58:31;;;;;;;12.60;6.03;;;7.50;93.40;;;;;;5066421;28;20670;-65
2022/03/10 08:01:00;;;;;;;15.97;6.63;;;7.60;93.30;;;;;;5068547;28;20480;-65
2022/03/10 08:03:27;;;;;;;5.90;4.80;;;7.70;93.10;;;;;;5059209;27;20587;-66
2022/03/10 08:05:55;;;;;;;13.13;6.17;;;7.90;92.10;;;;;;5066268;28;20644;-67
2022/03/10 08:08:22;;;;;;;8.63;5.23;;;7.90;92.10;;;;;;5065998;28;20485;-67
2022/03/10 08:10:49;;;;;;;9.03;5.97;;;8.20;91.30;;;;;;5067810;28;20462;-65
2022/03/10 08:13:16;;;;;;;12.50;6.97;;;8.50;91.30;;;;;;5062791;28;20552;-67
2022/03/10 08:15:43;;;;;;;15.27;5.47;;;8.50;90.40;;;;;;5070508;28;20472;-67
2022/03/10 08:18:11;;;;;;;7.83;6.27;;;8.70;90.50;;;;;;5065075;28;20447;-66
2022/03/10 08:20:39;;;;;;;4.83;3.63;;;8.90;90.20;;;;;;5062257;28;20520;-66
2022/03/10 08:23:07;;;;;;;20.73;7.00;;;9.40;87.10;;;;;;5069388;28;21030;-66
2022/03/10 08:25:36;;;;;;;7.20;4.50;;;9.80;84.60;;;;;;5062616;28;20424;-67
2022/03/10 08:28:03;;;;;;;11.20;5.20;;;9.90;83.10;;;;;;5058389;28;20493;-68
2022/03/10 08:30:30;;;;;;;8.13;5.57;;;10.00;80.80;;;;;;5067414;28;20469;-65
2022/03/10 08:32:57;;;;;;;9.40;6.60;;;10.30;79.50;;;;;;5072608;28;20858;-68
2022/03/10 08:35:23;;;;;;;11.80;6.50;;;10.80;79.00;;;;;;5064042;28;20614;-66
2022/03/10 08:37:50;;;;;;;14.80;6.30;;;11.90;75.00;;;;;;5063557;28;20497;-67
2022/03/10 08:40:19;;;;;;;19.13;8.77;;;12.70;71.50;;;;;;5069516;28;20595;-67
2022/03/10 08:42:48;;;;;;;8.93;5.77;;;13.10;67.70;;;;;;5060229;28;20447;-67
2022/03/10 08:45:15;;;;;;;19.30;7.90;;;13.40;65.00;;;;;;5065703;28;21194;-66
2022/03/10 08:47:42;;;;;;;8.60;5.90;;;13.80;63.10;;;;;;5059488;28;20477;-66
2022/03/10 08:50:11;;;;;;;17.57;8.23;;;14.30;59.80;;;;;;5062958;28;20811;-67
2022/03/10 08:52:38;;;;;;;13.97;8.83;;;14.50;58.80;;;;;;5063858;28;20471;-66
2022/03/10 08:55:06;;;;;;;12.40;7.90;;;15.50;58.00;;;;;;5062595;28;21516;-65
2022/03/10 08:57:34;;;;;;;21.57;9.47;;;16.60;54.80;;;;;;5063697;28;22131;-66
2022/03/10 09:00:02;;;;;;;21.87;10.10;;;16.70;52.20;;;;;;5064012;28;20453;-65
2022/03/10 09:02:29;;;;;;;11.43;7.07;;;16.90;51.80;;;;;;5063711;28;20704;-68
2022/03/10 09:04:55;;;;;;;10.70;6.80;;;18.10;49.90;;;;;;5064233;28;20829;-67
2022/03/10 09:07:22;;;;;;;24.23;7.07;;;18.00;48.80;;;;;;5064911;28;20489;-66
2022/03/10 09:09:49;;;;;;;16.93;7.93;;;17.90;46.90;;;;;;5067002;28;20465;-66
2022/03/10 09:12:15;;;;;;;11.60;9.30;;;17.90;47.80;;;;;;5067099;28;21167;-66
2022/03/10 09:14:43;;;;;;;12.80;8.30;;;18.20;46.90;;;;;;5068938;28;20503;-66
2022/03/10 09:17:14;;;;;;;16.90;9.53;;;18.10;47.10;;;;;;5062144;28;20978;-68
2022/03/10 09:19:40;;;;;;;16.03;9.00;;;19.00;45.90;;;;;;5065381;28;20457;-67
2022/03/10 09:22:07;;;;;;;13.83;8.77;;;20.00;44.70;;;;;;5073983;28;20460;-67
2022/03/10 09:24:34;;;;;;;16.10;9.43;;;20.00;43.30;;;;;;5066155;28;20493;-67
2022/03/10 09:27:03;;;;;;;14.27;8.43;;;19.70;43.60;;;;;;5068714;28;20602;-68
2022/03/10 09:29:29;;;;;;;14.50;9.33;;;19.40;43.10;;;;;;5071619;28;20461;-67
2022/03/10 09:31:57;;;;;;;21.23;9.60;;;19.90;42.90;;;;;;5065845;28;22243;-68
2022/03/10 09:34:27;;;;;;;16.93;11.10;;;20.50;42.20;;;;;;5065211;28;20448;-67
2022/03/10 09:36:53;;;;;;;13.60;6.97;;;21.00;41.30;;;;;;5069375;28;20469;-67
2022/03/10 09:39:20;;;;;;;14.80;9.40;;;21.70;40.40;;;;;;5072624;28;21390;-68
2022/03/10 09:41:47;;;;;;;7.70;5.87;;;21.60;39.80;;;;;;5066312;28;20559;-68
2022/03/10 09:44:15;;;;;;;15.50;10.40;;;20.80;38.60;;;;;;5073824;28;20974;-66
2022/03/10 09:46:42;;;;;;;14.20;10.73;;;20.70;39.20;;;;;;5069574;27;20457;-68
2022/03/10 09:49:10;;;;;;;12.33;8.40;;;21.60;38.40;;;;;;5072816;28;20876;-67
2022/03/10 09:51:38;;;;;;;13.67;8.00;;;22.00;37.80;;;;;;5068803;28;20468;-66
2022/03/10 09:54:05;;;;;;;23.67;9.90;;;22.70;38.50;;;;;;5062972;28;20462;-68
2022/03/10 09:56:36;;;;;;;7.47;5.70;;;23.10;36.90;;;;;;5069240;28;20573;-67
2022/03/10 09:59:06;;;;;;;13.43;9.17;;;23.30;36.50;;;;;;5073489;28;20480;-67
2022/03/10 10:01:33;;;;;;;16.40;9.93;;;22.40;37.10;;;;;;5062958;28;20457;-68
2022/03/10 10:04:00;;;;;;;14.70;9.40;;;21.60;36.70;;;;;;5067833;28;20551;-67
2022/03/10 10:06:28;;;;;;;24.90;10.90;;;22.20;37.50;;;;;;5065742;27;20464;-67
2022/03/10 10:08:56;;;;;;;11.40;6.70;;;22.40;36.80;;;;;;5066741;27;20489;-67
2022/03/10 10:11:32;;;;;;;14.03;8.70;;;22.10;35.00;;;;;;5073889;28;20468;-67
2022/03/10 10:13:59;;;;;;;10.67;7.43;;;22.50;35.80;;;;;;5069130;27;20862;-67
2022/03/10 10:16:25;;;;;;;18.57;11.20;;;23.80;34.50;;;;;;5071327;28;20557;-67
2022/03/10 10:18:56;;;;;;;14.77;6.77;;;23.00;34.60;;;;;;5071960;27;23974;-66
2022/03/10 10:21:24;;;;;;;11.50;8.87;;;21.80;33.90;;;;;;5069913;28;20464;-67
2022/03/10 10:23:54;;;;;;;16.70;9.57;;;22.80;35.00;;;;;;5068226;27;20468;-68
2022/03/10 10:26:26;;;;;;;12.83;9.00;;;23.10;34.60;;;;;;5071716;28;20461;-67
2022/03/10 10:28:53;;;;;;;10.27;7.10;;;23.60;33.80;;;;;;5066866;28;22102;-66
2022/03/10 10:31:22;;;;;;;18.50;12.90;;;23.20;33.20;;;;;;5067691;28;20460;-65
2022/03/10 10:34:09;;;;;;;10.20;7.90;;;23.20;33.70;;;;;;5070252;28;20448;-67
2022/03/10 10:36:37;;;;;;;19.87;10.10;;;22.90;33.70;;;;;;5063524;28;20582;-68
2022/03/10 10:39:11;;;;;;;17.70;8.93;;;22.60;34.80;;;;;;5067999;28;20482;-66
2022/03/10 10:41:40;;;;;;;12.37;10.23;;;23.30;33.50;;;;;;5073588;28;20553;-66
2022/03/10 10:44:12;;;;;;;16.30;10.50;;;23.60;33.90;;;;;;5070507;28;20829;-65
2022/03/10 10:46:40;;;;;;;15.77;8.57;;;24.80;33.90;;;;;;5067082;28;20450;-67
2022/03/10 10:49:09;;;;;;;12.17;8.10;;;24.80;32.60;;;;;;5070344;28;22294;-67
2022/03/10 10:51:38;;;;;;;11.27;8.40;;;25.20;32.00;;;;;;5064936;28;20476;-66
2022/03/10 10:54:07;;;;;;;11.80;5.70;;;25.00;32.60;;;;;;5065001;28;20520;-66
2022/03/10 10:56:36;;;;;;;11.87;7.17;;;24.30;32.20;;;;;;5063897;28;20526;-67
2022/03/10 10:59:03;;;;;;;18.77;8.83;;;23.30;32.30;;;;;;5068677;28;20477;-67
2022/03/10 11:01:32;;;;;;;15.33;10.47;;;23.50;33.40;;;;;;5062682;27;20619;-68
2022/03/10 11:04:00;;;;;;;11.70;8.20;;;23.80;32.50;;;;;;5070064;28;20480;-66
2022/03/10 11:06:26;;;;;;;11.03;7.53;;;24.90;32.40;;;;;;5069279;28;20458;-68
2022/03/10 11:08:53;;;;;;;11.87;9.50;;;24.30;32.00;;;;;;5062653;28;20850;-67
2022/03/10 11:11:21;;;;;;;16.03;8.93;;;24.50;32.40;;;;;;5062684;28;20519;-68
2022/03/10 11:13:49;;;;;;;14.20;10.63;;;25.40;31.60;;;;;;5067557;27;20464;-66
2022/03/10 11:16:17;;;;;;;11.50;8.80;;;24.70;31.70;;;;;;5061810;28;20477;-67
2022/03/10 11:18:49;;;;;;;12.07;8.00;;;25.30;31.50;;;;;;5068598;28;21027;-67
2022/03/10 11:21:44;;;;;;;13.67;7.57;;;24.70;31.40;;;;;;5069288;28;20465;-67
2022/03/10 11:24:34;;;;;;;14.53;9.07;;;24.40;31.30;;;;;;5062631;28;20504;-68
2022/03/10 11:27:08;;;;;;;15.50;10.20;;;25.70;32.10;;;;;;5064009;28;20760;-66
2022/03/10 11:29:37;;;;;;;15.30;9.93;;;27.20;31.00;;;;;;5064379;28;20460;-66
2022/03/10 11:32:06;;;;;;;19.27;12.20;;;27.00;29.90;;;;;;5062976;28;20536;-67
2022/03/10 11:34:49;;;;;;;16.03;9.77;;;27.30;30.50;;;;;;5065124;28;20584;-66
2022/03/10 11:37:52;;;;;;;16.67;9.37;;;27.40;29.90;;;;;;5067068;28;21040;-66
2022/03/10 11:40:22;;;;;;;11.30;8.40;;;27.00;29.90;;;;;;5061236;28;20457;-70
2022/03/10 11:43:00;;;;;;;12.70;8.20;;;27.10;29.50;;;;;;5064628;28;20591;-69
2022/03/10 11:45:30;;;;;;;12.93;9.67;;;27.40;29.00;;;;;;5061072;28;20484;-69
2022/03/10 11:48:38;;;;;;;15.50;9.20;;;25.80;29.30;;;;;;5067595;28;20484;-69
2022/03/10 11:51:40;;;;;;;17.73;10.70;;;26.40;29.50;;;;;;5063235;28;20481;-69
2022/03/10 11:54:08;;;;;;;11.20;8.43;;;26.80;29.90;;;;;;5062780;28;20465;-70
2022/03/10 11:56:57;;;;;;;14.00;9.07;;;28.00;29.00;;;;;;5061513;28;20700;-69
2022/03/10 11:59:25;;;;;;;12.77;9.03;;;28.10;28.50;;;;;;5055331;27;20463;-70
2022/03/10 12:01:55;;;;;;;16.37;10.20;;;28.40;27.90;;;;;;5063111;27;20457;-70
2022/03/10 12:04:22;;;;;;;12.33;7.40;;;27.30;27.60;;;;;;5059637;28;20456;-70
2022/03/10 12:06:54;;;;;;;11.20;7.70;;;28.00;27.70;;;;;;5060274;28;20485;-70
2022/03/10 12:09:29;;;;;;;13.90;7.67;;;27.10;27.80;;;;;;5063591;27;20477;-70
2022/03/10 12:12:11;;;;;;;17.87;9.60;;;27.40;27.60;;;;;;5067565;28;20562;-69
2022/03/10 12:14:37;;;;;;;10.70;8.40;;;26.10;27.80;;;;;;5068414;28;20456;-70
2022/03/10 12:17:06;;;;;;;14.70;6.20;;;25.70;28.30;;;;;;5065035;28;21387;-69
2022/03/10 12:20:06;;;;;;;10.17;7.20;;;26.20;28.30;;;;;;5064300;28;20576;-70
2022/03/10 12:22:36;;;;;;;6.83;4.37;;;27.70;27.70;;;;;;5061219;28;20472;-69
2022/03/10 12:25:18;;;;;;;15.03;8.80;;;27.00;27.60;;;;;;5063559;28;20460;-71
2022/03/10 12:27:49;;;;;;;9.77;8.00;;;25.90;27.90;;;;;;5061904;28;20490;-70
2022/03/10 12:30:19;;;;;;;15.67;6.60;;;26.60;27.70;;;;;;5052705;28;21739;-69
2022/03/10 12:32:50;;;;;;;10.20;6.63;;;26.50;27.70;;;;;;5057106;27;20462;-69
2022/03/10 12:35:20;;;;;;;11.17;5.80;;;26.60;27.90;;;;;;5068792;28;20461;-69
2022/03/10 12:37:47;;;;;;;11.03;6.27;;;26.90;28.10;;;;;;5059835;28;21257;-69
2022/03/10 12:40:18;;;;;;;10.93;5.77;;;27.20;27.90;;;;;;5062465;27;20461;-69
2022/03/10 12:42:46;;;;;;;4.80;2.20;;;27.10;28.00;;;;;;5063287;28;20474;-69
2022/03/10 12:45:13;;;;;;;5.60;3.50;;;25.70;28.00;;;;;;5058815;28;20463;-69
2022/03/10 12:47:44;;;;;;;6.00;4.10;;;25.40;28.30;;;;;;5059778;28;20615;-69
2022/03/10 12:50:13;;;;;;;6.30;3.10;;;25.90;28.50;;;;;;5060388;28;20462;-70
2022/03/10 12:52:41;;;;;;;4.00;3.53;;;26.00;28.10;;;;;;5063733;28;20463;-68
2022/03/10 12:55:10;;;;;;;4.50;3.03;;;25.30;28.60;;;;;;5059389;28;20453;-69
2022/03/10 12:57:37;;;;;;;6.10;4.27;;;25.80;29.20;;;;;;5060090;28;20543;-68